Route Details

Aircraft Information
Group: North America Fleet
Types: B738, B752, B762, B763
Route Data
Distance: 362nm
Duration: 1h 35m
Origin METAR: KATL 152352Z 22005KT 10SM FEW040 SCT200 BKN250 28/22 A2986 RMK AO2 SLP101 LTG DSNT SW-NW CB DSNT SW-NW 60000 T02830222 10328 20278 55003
Dest. METAR: KLAL 152350Z 21005KT 10SM SKC 28/22 A2989
Freight Data
(for Aug 16, 2022)
Load Factor:
48%
Manifested Cargo: 29,752lbs
Financial History
Total Freight: 40,503lbs
Average Load: 0lbs/flt
Fuel Used: 10,412lbs
Avg. Fuel Used: 0lbs/flt
Fuel Expense: $5,102
Avg. Fuel Expense: $0
Avg. Fuel Cost: $0/lbs
Total Gross Income: $99,637
Pilot Pay: $239
Total Expenses: $19,688
Total Revenue: $74,345
Average Revenue: $0

Capitol Logistics 358




KATL
Hartsfield - Jackson Atlanta International Airport
Atlanta, Georgia
KLAL
Lakeland Linder Regional Airport
Lakeland, Florida

Activity Log

Date Flight Route Aircraft Duration
07/15/2022 CPX358 BANNG3 LUCKK DCT HONID MAATY3 B762 1h 23m